Time;durP1;ratioP1;P1;durP2;ratioP2;P2;SDS_P1;SDS_P2;PMS_P1;PMS_P2;Temp;Humidity;BMP_temperature;BMP_pressure;BME280_temperature;BME280_humidity;BME280_pressure;Samples;Min_cycle;Max_cycle;Signal;HPM_P1;HPM_P2
2022/05/25 00:02:19;;;;;;;13.98;12.32;;;10.60;99.90;;;;;;5051490;28;20049;-65
2022/05/25 00:04:45;;;;;;;15.02;13.48;;;10.60;99.90;;;;;;5051295;28;20094;-66
2022/05/25 00:07:12;;;;;;;17.67;12.80;;;10.60;99.90;;;;;;5049664;28;20044;-65
2022/05/25 00:09:38;;;;;;;15.70;14.10;;;10.60;99.90;;;;;;5050430;28;20057;-65
2022/05/25 00:12:05;;;;;;;15.70;14.10;;;10.50;99.90;;;;;;5051443;28;20044;-65
2022/05/25 00:14:32;;;;;;;14.70;13.27;;;10.50;99.90;;;;;;5051536;28;20037;-65
2022/05/25 00:16:59;;;;;;;14.77;13.07;;;10.50;99.90;;;;;;5050427;28;20620;-65
2022/05/25 00:22:09;;;;;;;18.30;13.93;;;10.40;99.90;;;;;;5063926;28;20068;-65
2022/05/25 00:24:34;;;;;;;22.48;16.73;;;10.40;99.90;;;;;;5050907;28;20512;-65
2022/05/25 00:27:00;;;;;;;17.70;15.50;;;10.40;99.90;;;;;;5052913;28;20330;-65
2022/05/25 00:29:26;;;;;;;22.27;19.83;;;10.30;99.90;;;;;;5070491;28;20730;-66
2022/05/25 00:31:52;;;;;;;19.60;17.40;;;10.30;99.90;;;;;;5070004;28;20041;-65
2022/05/25 00:34:18;;;;;;;18.95;16.42;;;10.30;99.90;;;;;;5068666;28;20048;-65
2022/05/25 00:36:44;;;;;;;19.65;17.45;;;10.30;99.90;;;;;;5050828;28;20102;-65
2022/05/25 00:39:10;;;;;;;20.60;16.88;;;10.30;99.90;;;;;;5050452;28;20029;-65
2022/05/25 00:41:36;;;;;;;19.02;17.05;;;10.30;99.90;;;;;;5050966;28;20135;-65
2022/05/25 00:44:04;;;;;;;19.63;17.52;;;10.30;99.90;;;;;;5050549;28;20394;-65
2022/05/25 00:46:32;;;;;;;19.10;17.10;;;10.30;99.90;;;;;;5060852;28;20048;-65
2022/05/25 00:49:03;;;;;;;17.88;14.57;;;10.20;99.90;;;;;;5069746;28;20060;-65
2022/05/25 00:51:50;;;;;;;19.80;17.15;;;10.20;99.90;;;;;;5064471;28;20505;-64
2022/05/25 00:54:24;;;;;;;18.70;16.73;;;10.10;99.90;;;;;;5056992;28;20048;-65
2022/05/25 00:56:51;;;;;;;20.35;17.02;;;10.10;99.90;;;;;;5070442;28;20049;-64
2022/05/25 00:59:31;;;;;;;19.67;15.95;;;10.10;99.90;;;;;;5068396;28;20041;-64
2022/05/25 01:01:57;;;;;;;19.63;16.90;;;10.10;99.90;;;;;;5049885;28;20049;-64
2022/05/25 01:04:25;;;;;;;19.17;16.65;;;10.00;99.90;;;;;;5050344;28;20871;-64
2022/05/25 01:07:17;;;;;;;20.42;16.88;;;10.00;99.90;;;;;;5050501;28;20044;-64
2022/05/25 01:10:23;;;;;;;21.58;17.15;;;10.00;99.90;;;;;;5050048;28;20091;-64
2022/05/25 01:13:01;;;;;;;18.98;16.92;;;10.00;99.90;;;;;;5045933;28;20091;-66
2022/05/25 01:15:26;;;;;;;;;;;9.90;99.90;;;;;;5069572;28;20045;-63
2022/05/25 01:18:06;;;;;;;17.40;15.57;;;10.00;99.90;;;;;;5069488;28;19927;-66
2022/05/25 01:20:37;;;;;;;21.92;18.02;;;9.90;99.90;;;;;;5057217;28;20064;-65
2022/05/25 01:23:21;;;;;;;20.10;17.67;;;9.90;99.90;;;;;;5050835;28;20413;-65
2022/05/25 01:26:21;;;;;;;18.50;16.58;;;10.00;99.90;;;;;;5060698;28;20041;-65
2022/05/25 01:29:08;;;;;;;18.98;16.88;;;9.90;99.90;;;;;;5050227;28;20467;-65
2022/05/25 01:31:59;;;;;;;19.20;16.92;;;9.90;99.90;;;;;;5050114;28;20048;-65
2022/05/25 01:34:52;;;;;;;24.98;17.65;;;9.90;99.90;;;;;;5060818;28;20032;-65
2022/05/25 01:37:27;;;;;;;21.92;16.60;;;9.90;99.90;;;;;;5069907;28;20044;-64
2022/05/25 01:40:02;;;;;;;20.95;16.60;;;9.90;99.90;;;;;;5069767;28;20067;-64
2022/05/25 01:42:33;;;;;;;18.70;16.75;;;9.80;99.90;;;;;;5049429;28;20044;-64
2022/05/25 01:45:03;;;;;;;21.13;18.17;;;9.80;99.90;;;;;;5050237;28;20051;-64
2022/05/25 01:47:32;;;;;;;23.00;18.63;;;9.80;99.90;;;;;;5052738;28;20456;-64
2022/05/25 01:50:11;;;;;;;20.58;18.38;;;9.80;99.90;;;;;;5054703;28;20056;-63
2022/05/25 01:52:43;;;;;;;22.23;16.85;;;9.90;99.90;;;;;;5069954;28;20054;-64
2022/05/25 01:55:17;;;;;;;19.92;17.80;;;9.80;99.90;;;;;;5067547;28;20044;-64
2022/05/25 01:57:47;;;;;;;16.73;15.13;;;9.90;99.90;;;;;;5069215;28;20525;-64
2022/05/25 02:00:36;;;;;;;19.73;17.70;;;9.90;99.90;;;;;;5059383;28;20041;-64
2022/05/25 02:06:13;;;;;;;21.40;17.75;;;9.80;99.90;;;;;;5068865;28;20045;-64
2022/05/25 02:08:50;;;;;;;19.95;17.02;;;9.80;99.90;;;;;;5068837;28;20045;-64
2022/05/25 02:11:41;;;;;;;20.05;17.90;;;9.80;99.90;;;;;;5068769;28;20059;-64
2022/05/25 02:14:14;;;;;;;20.15;17.98;;;9.80;99.90;;;;;;5059355;28;20098;-63
2022/05/25 02:17:05;;;;;;;16.90;15.10;;;9.80;99.90;;;;;;5052811;28;20076;-64
2022/05/25 02:19:54;;;;;;;19.73;17.52;;;9.80;99.90;;;;;;5048827;28;20390;-64
2022/05/25 02:22:25;;;;;;;19.08;16.63;;;9.80;99.90;;;;;;5055641;28;20124;-64
2022/05/25 02:25:07;;;;;;;21.83;18.05;;;9.70;99.90;;;;;;5057362;28;20517;-64
2022/05/25 02:27:52;;;;;;;23.80;18.27;;;9.80;99.90;;;;;;5061551;28;20052;-64
2022/05/25 02:30:20;;;;;;;20.63;17.45;;;9.70;99.90;;;;;;5066147;28;20051;-63
2022/05/25 02:32:56;;;;;;;23.63;17.45;;;9.70;99.90;;;;;;5068504;28;20052;-64
2022/05/25 02:35:23;;;;;;;23.88;19.75;;;9.70;99.90;;;;;;5068470;28;20105;-64
2022/05/25 02:37:56;;;;;;;19.38;17.33;;;9.70;99.90;;;;;;5061629;28;20127;-64
2022/05/25 02:40:22;;;;;;;21.88;18.92;;;9.70;99.90;;;;;;5068411;28;20041;-64
2022/05/25 02:42:47;;;;;;;26.02;18.95;;;9.70;99.90;;;;;;5064165;28;20037;-64
2022/05/25 02:45:13;;;;;;;21.15;16.70;;;9.70;99.90;;;;;;5057503;28;20036;-64
2022/05/25 02:47:39;;;;;;;20.20;17.38;;;9.70;99.90;;;;;;5069430;28;20040;-63
2022/05/25 02:50:06;;;;;;;18.73;16.58;;;9.70;99.90;;;;;;5068961;28;20079;-63
2022/05/25 02:52:32;;;;;;;24.05;17.95;;;9.70;99.90;;;;;;5068129;28;20051;-64
2022/05/25 02:54:57;;;;;;;19.17;16.35;;;9.60;99.90;;;;;;5068984;28;20044;-64
2022/05/25 02:57:23;;;;;;;19.60;16.27;;;9.60;99.90;;;;;;5067282;28;20075;-63
2022/05/25 02:59:48;;;;;;;24.17;18.83;;;9.60;99.90;;;;;;5050193;28;20120;-63
2022/05/25 03:02:14;;;;;;;22.60;18.90;;;9.60;99.90;;;;;;5069536;28;20393;-63
2022/05/25 03:04:40;;;;;;;21.02;17.45;;;9.60;99.90;;;;;;5068798;28;20045;-63
2022/05/25 03:07:07;;;;;;;22.08;18.88;;;9.50;99.90;;;;;;5069375;28;20040;-63
2022/05/25 03:09:37;;;;;;;28.10;21.50;;;9.50;99.90;;;;;;5067390;28;20060;-63
2022/05/25 03:12:07;;;;;;;26.02;20.13;;;9.50;99.90;;;;;;5060751;28;20171;-63
2022/05/25 03:14:33;;;;;;;23.92;19.05;;;9.50;99.90;;;;;;5053329;28;20044;-63
2022/05/25 03:17:08;;;;;;;27.63;19.38;;;9.40;99.90;;;;;;5063795;28;20033;-63
2022/05/25 03:19:34;;;;;;;27.60;21.75;;;9.50;99.90;;;;;;5058011;28;20458;-63
2022/05/25 03:22:00;;;;;;;22.67;20.13;;;9.50;99.90;;;;;;5068919;28;20046;-63
2022/05/25 03:24:26;;;;;;;24.85;19.08;;;9.50;99.90;;;;;;5055599;28;20037;-64
2022/05/25 03:26:52;;;;;;;26.88;21.60;;;9.50;99.90;;;;;;5049231;28;20041;-63
2022/05/25 03:29:19;;;;;;;29.23;23.92;;;9.50;99.90;;;;;;5064267;28;20119;-63
2022/05/25 03:31:44;;;;;;;33.20;23.15;;;9.50;99.90;;;;;;5068861;28;20063;-64
2022/05/25 03:34:10;;;;;;;30.27;23.38;;;9.50;99.90;;;;;;5068433;28;20129;-64
2022/05/25 03:36:36;;;;;;;26.23;22.15;;;9.50;99.90;;;;;;5065098;28;20486;-64
2022/05/25 03:39:02;;;;;;;28.92;23.75;;;9.50;99.90;;;;;;5048421;28;20052;-63
2022/05/25 03:41:28;;;;;;;32.17;24.20;;;9.50;99.90;;;;;;5049582;28;20045;-63
2022/05/25 03:43:54;;;;;;;29.38;22.63;;;9.50;99.90;;;;;;5062281;28;20397;-63
2022/05/25 03:46:21;;;;;;;28.85;24.10;;;9.50;99.90;;;;;;5068701;28;20115;-63
2022/05/25 03:48:46;;;;;;;30.92;23.55;;;9.50;99.90;;;;;;5050522;28;20474;-64
2022/05/25 03:51:12;;;;;;;26.95;22.75;;;9.50;99.90;;;;;;5048276;28;20080;-63
2022/05/25 03:53:38;;;;;;;33.78;24.98;;;9.50;99.90;;;;;;5048108;28;20123;-63
2022/05/25 03:56:05;;;;;;;33.05;23.70;;;9.50;99.90;;;;;;5048912;28;20079;-64
2022/05/25 03:58:30;;;;;;;30.08;23.63;;;9.60;99.90;;;;;;5048522;28;20583;-64
2022/05/25 04:00:56;;;;;;;31.05;23.95;;;9.60;99.90;;;;;;5051131;28;20044;-64
2022/05/25 04:03:22;;;;;;;26.75;23.45;;;9.60;99.90;;;;;;5056353;28;20037;-64
2022/05/25 04:05:49;;;;;;;31.98;26.13;;;9.60;99.90;;;;;;5057290;28;20405;-64
2022/05/25 04:08:15;;;;;;;29.90;23.77;;;9.70;99.90;;;;;;5053202;28;20056;-64
2022/05/25 04:10:40;;;;;;;29.33;24.73;;;9.70;99.90;;;;;;5056148;28;20037;-64
2022/05/25 04:13:07;;;;;;;27.88;24.52;;;9.80;99.90;;;;;;5068465;28;20489;-64
2022/05/25 04:15:34;;;;;;;32.33;25.15;;;10.10;99.90;;;;;;5057138;28;20495;-64
2022/05/25 04:18:00;;;;;;;27.20;22.52;;;10.30;99.90;;;;;;5056477;28;20087;-64
2022/05/25 04:20:28;;;;;;;34.53;23.20;;;10.50;99.90;;;;;;5068231;28;20047;-64
2022/05/25 04:22:54;;;;;;;23.60;20.52;;;10.50;99.90;;;;;;5065994;28;20045;-63
2022/05/25 04:25:21;;;;;;;35.47;23.25;;;10.60;99.90;;;;;;5047660;28;20792;-64
2022/05/25 04:27:50;;;;;;;28.60;24.50;;;10.50;99.90;;;;;;5059253;28;20044;-63
2022/05/25 04:30:18;;;;;;;;;;;10.40;99.90;;;;;;5067430;28;20508;-64
2022/05/25 04:32:43;;;;;;;33.45;22.73;;;10.40;99.90;;;;;;5068795;28;19920;-64
2022/05/25 04:35:11;;;;;;;28.35;22.42;;;10.30;99.90;;;;;;5066990;28;20123;-64
2022/05/25 04:37:48;;;;;;;28.90;23.85;;;10.30;99.90;;;;;;5067728;28;20032;-64
2022/05/25 04:40:17;;;;;;;29.92;25.15;;;10.20;99.90;;;;;;5067031;28;20044;-64
2022/05/25 04:42:45;;;;;;;33.75;25.67;;;10.30;99.90;;;;;;5068133;28;20090;-64
2022/05/25 04:45:10;;;;;;;31.88;25.75;;;10.30;99.90;;;;;;5067975;28;20498;-64
2022/05/25 04:47:37;;;;;;;32.80;25.27;;;10.30;99.90;;;;;;5071067;28;20037;-65
2022/05/25 04:50:07;;;;;;;33.60;25.05;;;10.30;99.90;;;;;;5071598;28;20048;-64
2022/05/25 04:52:34;;;;;;;32.30;24.90;;;10.30;99.90;;;;;;5071953;28;20048;-64
2022/05/25 04:54:59;;;;;;;29.10;24.27;;;10.30;99.90;;;;;;5070920;28;20128;-64
2022/05/25 04:57:27;;;;;;;28.60;22.73;;;10.40;99.90;;;;;;5060202;28;20120;-65
2022/05/25 05:00:01;;;;;;;29.30;25.60;;;10.40;99.90;;;;;;5060508;28;20410;-64
2022/05/25 05:02:29;;;;;;;33.63;24.23;;;10.40;99.90;;;;;;5055365;28;20120;-64
2022/05/25 05:04:55;;;;;;;33.43;27.43;;;10.40;99.90;;;;;;5071554;28;20059;-64
2022/05/25 05:07:33;;;;;;;34.90;26.80;;;10.40;99.90;;;;;;5071543;28;20094;-64
2022/05/25 05:10:03;;;;;;;39.45;27.80;;;10.50;99.90;;;;;;5058047;28;20051;-64
2022/05/25 05:12:29;;;;;;;36.25;26.23;;;10.50;99.90;;;;;;5062686;28;20048;-65
2022/05/25 05:14:57;;;;;;;39.05;27.02;;;10.60;99.90;;;;;;5051122;28;20041;-64
2022/05/25 05:17:23;;;;;;;34.13;25.98;;;10.60;99.90;;;;;;5053484;28;20120;-64
2022/05/25 05:19:49;;;;;;;30.80;24.08;;;10.60;99.90;;;;;;5071101;28;20123;-65
2022/05/25 05:22:14;;;;;;;30.17;25.95;;;10.70;99.90;;;;;;5067871;28;20497;-65
2022/05/25 05:24:40;;;;;;;31.92;25.70;;;10.70;99.90;;;;;;5071267;28;20097;-64
2022/05/25 05:27:06;;;;;;;30.80;25.00;;;10.80;99.90;;;;;;5061357;28;20482;-65
2022/05/25 05:29:32;;;;;;;34.63;26.73;;;10.80;99.90;;;;;;5052497;28;20076;-64
2022/05/25 05:31:59;;;;;;;38.92;25.98;;;10.90;99.90;;;;;;5050525;28;20045;-64
2022/05/25 05:34:28;;;;;;;34.85;26.98;;;11.00;99.90;;;;;;5058894;28;20036;-65
2022/05/25 05:37:00;;;;;;;33.70;26.08;;;11.00;99.90;;;;;;5057704;28;20055;-64
2022/05/25 05:39:28;;;;;;;28.02;22.55;;;11.00;99.90;;;;;;5051697;28;20569;-64
2022/05/25 05:42:05;;;;;;;27.58;24.10;;;11.10;99.90;;;;;;5050382;28;20460;-64
2022/05/25 05:44:36;;;;;;;32.83;23.83;;;11.20;99.90;;;;;;5050564;28;20498;-65
2022/05/25 05:47:05;;;;;;;30.52;24.02;;;11.30;99.90;;;;;;5051032;28;20505;-64
2022/05/25 05:49:31;;;;;;;36.67;25.02;;;11.40;99.90;;;;;;5050059;28;20491;-64
2022/05/25 05:51:57;;;;;;;28.73;22.83;;;11.50;99.90;;;;;;5068072;28;20135;-64
2022/05/25 05:54:23;;;;;;;31.73;23.70;;;11.60;99.90;;;;;;5054693;28;20041;-64
2022/05/25 05:56:49;;;;;;;28.10;22.25;;;11.60;99.90;;;;;;5050795;28;20045;-64
2022/05/25 05:59:14;;;;;;;32.30;24.60;;;11.70;99.90;;;;;;5049556;28;20049;-65
2022/05/25 06:01:42;;;;;;;31.73;24.65;;;11.80;99.90;;;;;;5053865;28;20854;-64
2022/05/25 06:04:09;;;;;;;45.50;26.25;;;11.80;99.90;;;;;;5050400;28;20505;-64
2022/05/25 06:06:34;;;;;;;35.03;23.55;;;11.90;99.90;;;;;;5056152;28;20040;-64
2022/05/25 06:09:01;;;;;;;33.22;23.25;;;12.00;99.90;;;;;;5070217;28;20056;-64
2022/05/25 06:11:27;;;;;;;30.83;24.73;;;12.00;99.90;;;;;;5059214;28;20286;-64
2022/05/25 06:13:53;;;;;;;27.85;22.60;;;12.10;99.90;;;;;;5048843;28;20568;-64
2022/05/25 06:21:47;;;;;;;34.60;22.45;;;12.30;99.90;;;;;;5048949;28;20529;-64
2022/05/25 06:24:13;;;;;;;33.22;22.42;;;12.40;99.90;;;;;;5048788;28;20037;-64
2022/05/25 06:26:39;;;;;;;27.77;22.00;;;12.40;99.90;;;;;;5047910;28;20041;-64
2022/05/25 06:29:05;;;;;;;35.08;23.33;;;12.50;99.90;;;;;;5054828;28;20757;-65
2022/05/25 06:31:31;;;;;;;33.17;22.77;;;12.70;99.90;;;;;;5068188;28;20044;-64
2022/05/25 06:33:58;;;;;;;42.25;22.23;;;12.80;99.90;;;;;;5063106;28;20041;-65
2022/05/25 06:36:26;;;;;;;28.60;22.48;;;13.00;99.90;;;;;;5048668;28;20052;-65
2022/05/25 06:38:52;;;;;;;;;;;13.10;99.90;;;;;;5048659;28;20179;-64
2022/05/25 06:41:18;;;;;;;25.17;20.15;;;13.40;99.90;;;;;;5048288;28;20441;-64
2022/05/25 06:43:44;;;;;;;27.80;20.27;;;13.50;99.90;;;;;;5059224;28;20472;-64
2022/05/25 06:46:12;;;;;;;26.13;20.75;;;13.80;99.90;;;;;;5068190;28;20051;-64
2022/05/25 06:48:38;;;;;;;26.20;20.07;;;14.10;99.90;;;;;;5056480;28;20052;-63
2022/05/25 06:51:14;;;;;;;24.05;18.83;;;14.40;99.90;;;;;;5067981;28;20088;-65
2022/05/25 06:53:40;;;;;;;28.17;18.02;;;14.60;99.90;;;;;;5068354;28;20447;-65
2022/05/25 06:56:06;;;;;;;26.15;19.13;;;14.90;99.90;;;;;;5058859;28;20041;-65
2022/05/25 06:58:32;;;;;;;22.58;17.65;;;15.10;99.90;;;;;;5058590;28;20665;-64
2022/05/25 07:00:58;;;;;;;27.60;18.63;;;15.40;99.90;;;;;;5052095;28;20119;-64
2022/05/25 07:03:24;;;;;;;19.92;17.23;;;15.60;99.90;;;;;;5048415;28;20160;-66
2022/05/25 07:05:49;;;;;;;29.45;19.30;;;15.90;99.90;;;;;;5050426;28;20047;-66
2022/05/25 07:08:15;;;;;;;22.58;19.20;;;16.10;99.90;;;;;;5063677;28;20465;-66
2022/05/25 07:10:46;;;;;;;20.52;16.77;;;16.20;99.90;;;;;;5056829;28;20044;-66
2022/05/25 07:13:15;;;;;;;24.08;18.52;;;16.40;99.90;;;;;;5056672;28;20045;-66
2022/05/25 07:15:42;;;;;;;16.73;14.82;;;16.60;99.90;;;;;;5047342;28;20051;-66
2022/05/25 07:18:08;;;;;;;20.77;14.60;;;16.70;99.90;;;;;;5050326;28;20056;-66
2022/05/25 07:20:34;;;;;;;22.23;16.33;;;16.90;99.90;;;;;;5048219;28;20279;-64
2022/05/25 07:23:00;;;;;;;22.50;16.08;;;17.20;99.90;;;;;;5048219;28;20569;-64
2022/05/25 07:25:26;;;;;;;17.58;15.20;;;17.30;99.90;;;;;;5053961;28;20080;-66
2022/05/25 07:27:52;;;;;;;22.00;16.33;;;17.40;99.90;;;;;;5066714;28;20033;-63
2022/05/25 07:30:18;;;;;;;17.30;13.57;;;17.50;99.90;;;;;;5065926;28;20103;-63
2022/05/25 07:32:45;;;;;;;20.65;15.00;;;17.70;99.90;;;;;;5050873;28;20048;-64
2022/05/25 07:35:13;;;;;;;18.55;14.68;;;17.90;99.90;;;;;;5065080;28;20059;-66
2022/05/25 07:37:42;;;;;;;20.83;13.82;;;18.10;99.90;;;;;;5067986;28;20055;-63
2022/05/25 07:40:18;;;;;;;14.68;13.15;;;18.10;99.90;;;;;;5064173;28;20045;-63
2022/05/25 07:42:48;;;;;;;18.13;13.27;;;18.00;99.90;;;;;;5052503;28;20125;-63
2022/05/25 07:45:15;;;;;;;17.80;12.52;;;18.10;99.90;;;;;;5067689;28;20094;-63
2022/05/25 07:47:40;;;;;;;14.32;12.88;;;18.20;99.90;;;;;;5067734;28;20044;-63
2022/05/25 07:50:07;;;;;;;19.15;13.23;;;18.30;99.90;;;;;;5060287;28;20044;-66
2022/05/25 07:52:38;;;;;;;15.70;11.20;;;18.50;99.90;;;;;;5049635;28;20053;-65
2022/05/25 07:55:08;;;;;;;17.27;10.25;;;18.70;99.90;;;;;;5047450;28;20116;-63
2022/05/25 07:57:35;;;;;;;18.00;12.02;;;18.80;99.90;;;;;;5046975;28;20110;-64
2022/05/25 08:00:01;;;;;;;12.48;10.90;;;18.80;99.90;;;;;;5046133;28;20147;-63
2022/05/25 08:08:05;;;;;;;13.02;11.68;;;19.20;99.90;;;;;;5062323;28;20074;-64
2022/05/25 08:10:31;;;;;;;17.05;12.43;;;19.30;99.90;;;;;;5050774;28;20896;-64
2022/05/25 08:12:58;;;;;;;15.13;9.65;;;19.40;99.90;;;;;;5053916;28;20066;-64
2022/05/25 08:15:25;;;;;;;13.93;9.35;;;19.50;99.90;;;;;;5052135;28;20128;-64
2022/05/25 08:17:52;;;;;;;16.02;9.10;;;19.40;99.90;;;;;;5053703;28;20056;-64
2022/05/25 08:20:19;;;;;;;9.95;8.50;;;19.30;99.90;;;;;;5058591;28;20041;-64
2022/05/25 08:22:45;;;;;;;12.00;8.80;;;19.30;99.90;;;;;;5060563;28;20045;-64
2022/05/25 08:25:13;;;;;;;12.40;8.88;;;19.30;99.90;;;;;;5064690;28;20052;-64
2022/05/25 08:27:39;;;;;;;10.13;8.57;;;19.30;99.90;;;;;;5062859;28;20032;-64
2022/05/25 08:30:32;;;;;;;11.18;7.07;;;19.50;99.90;;;;;;5055001;28;20144;-63
2022/05/25 08:32:59;;;;;;;9.45;7.68;;;19.60;99.00;;;;;;5055739;28;20136;-63
2022/05/25 08:35:27;;;;;;;13.13;7.93;;;19.70;99.90;;;;;;5061045;28;20040;-64
2022/05/25 08:37:53;;;;;;;10.80;7.25;;;19.80;99.90;;;;;;5051084;28;20406;-64
2022/05/25 08:40:22;;;;;;;7.63;6.60;;;19.90;99.90;;;;;;5051142;28;20506;-64
2022/05/25 08:42:55;;;;;;;11.52;7.47;;;20.10;99.90;;;;;;5052153;28;20044;-64
2022/05/25 08:45:26;;;;;;;8.95;6.47;;;20.20;99.90;;;;;;5051741;28;20173;-64
2022/05/25 08:47:55;;;;;;;9.55;6.70;;;20.10;99.90;;;;;;5050892;28;20053;-64
2022/05/25 08:50:21;;;;;;;9.90;6.55;;;20.30;99.90;;;;;;5049887;28;20136;-64
2022/05/25 08:52:47;;;;;;;7.55;6.30;;;20.30;99.90;;;;;;5050816;28;20123;-64
2022/05/25 08:55:26;;;;;;;10.90;5.90;;;20.30;99.90;;;;;;5050529;28;20086;-65
2022/05/25 08:57:54;;;;;;;8.05;6.20;;;20.20;94.40;;;;;;5052368;28;20115;-65
2022/05/25 09:00:22;;;;;;;7.40;6.70;;;20.10;92.90;;;;;;5050346;28;20568;-65
2022/05/25 09:02:57;;;;;;;;;;;20.10;95.30;;;;;;5051006;28;20049;-64
2022/05/25 09:05:34;;;;;;;8.48;7.63;;;19.90;83.70;;;;;;5049011;28;20301;-64
2022/05/25 09:08:15;;;;;;;12.55;9.20;;;19.90;98.10;;;;;;5050450;28;20132;-64
2022/05/25 09:11:01;;;;;;;13.57;8.02;;;19.80;93.90;;;;;;5049943;28;20059;-65
2022/05/25 09:13:36;;;;;;;8.57;7.30;;;19.90;96.10;;;;;;5047792;28;20041;-65
2022/05/25 09:16:22;;;;;;;7.93;6.30;;;19.80;94.80;;;;;;5052327;28;20063;-64
2022/05/25 09:19:15;;;;;;;7.72;6.68;;;19.90;98.50;;;;;;5068716;28;20084;-64
2022/05/25 09:21:57;;;;;;;10.32;9.13;;;19.90;91.40;;;;;;5068603;28;20051;-65
2022/05/25 09:24:25;;;;;;;13.05;7.85;;;19.80;95.70;;;;;;5049638;28;20041;-65
2022/05/25 09:26:51;;;;;;;;;;;19.80;99.90;;;;;;5068521;28;20048;-66
2022/05/25 09:29:18;;;;;;;9.05;8.05;;;19.80;92.70;;;;;;5069388;28;20399;-64
2022/05/25 09:32:32;;;;;;;16.60;8.00;;;19.50;96.90;;;;;;5070226;28;20044;-65
2022/05/25 09:35:08;;;;;;;8.82;7.55;;;19.40;91.50;;;;;;5059266;28;20514;-65
2022/05/25 09:37:55;;;;;;;17.75;8.52;;;19.40;97.50;;;;;;5062100;28;20041;-65
2022/05/25 09:40:40;;;;;;;11.35;7.13;;;19.40;97.00;;;;;;5062302;28;20052;-65
2022/05/25 09:43:10;;;;;;;9.80;7.28;;;19.40;92.40;;;;;;5067028;28;20052;-66
2022/05/25 09:45:54;;;;;;;11.13;7.65;;;19.40;97.40;;;;;;5064716;28;20068;-65
2022/05/25 09:48:26;;;;;;;8.05;7.25;;;19.40;91.60;;;;;;5049604;28;20049;-68
2022/05/25 09:51:03;;;;;;;8.57;7.32;;;19.30;94.80;;;;;;5049800;28;20081;-65
2022/05/25 09:53:48;;;;;;;8.20;7.30;;;19.40;94.80;;;;;;5053669;28;20048;-65
2022/05/25 09:56:22;;;;;;;12.38;7.68;;;19.50;99.50;;;;;;5069228;28;20119;-65
2022/05/25 09:58:53;;;;;;;18.90;8.15;;;19.50;91.80;;;;;;5067402;28;20611;-65
2022/05/25 10:01:39;;;;;;;13.00;8.93;;;19.30;94.60;;;;;;5049210;28;20441;-67
2022/05/25 10:04:06;;;;;;;11.18;8.35;;;19.30;93.80;;;;;;5051758;28;20053;-65
2022/05/25 10:06:48;;;;;;;7.72;6.82;;;19.20;96.00;;;;;;5069266;28;20059;-65
2022/05/25 10:09:26;;;;;;;12.05;7.32;;;19.30;96.80;;;;;;5054668;28;20421;-67
2022/05/25 10:11:57;;;;;;;9.57;8.10;;;19.50;93.00;;;;;;5053161;28;20139;-65
2022/05/25 10:14:32;;;;;;;7.93;7.15;;;19.40;92.20;;;;;;5067250;28;20067;-65
2022/05/25 10:17:09;;;;;;;9.10;8.30;;;19.50;92.70;;;;;;5060846;28;20497;-64
2022/05/25 10:19:46;;;;;;;12.25;9.05;;;19.40;91.50;;;;;;5063092;28;20044;-64
2022/05/25 10:22:35;;;;;;;9.73;8.85;;;19.50;92.20;;;;;;5055091;28;20040;-66
2022/05/25 10:25:20;;;;;;;10.43;9.43;;;19.70;94.60;;;;;;5042368;28;20052;-64
2022/05/25 10:27:47;;;;;;;12.73;9.90;;;19.80;93.30;;;;;;5052648;28;20041;-64
2022/05/25 10:39:28;;;;;;;10.60;8.00;;;19.40;92.60;;;;;;5048915;28;20068;-66
2022/05/25 10:42:12;;;;;;;14.80;8.77;;;19.30;86.00;;;;;;5049142;28;20203;-66
2022/05/25 10:44:50;;;;;;;12.18;8.35;;;19.30;90.40;;;;;;5047372;28;20041;-66
2022/05/25 10:47:57;;;;;;;9.85;8.45;;;19.30;93.40;;;;;;5059437;28;20067;-66
2022/05/25 10:50:37;;;;;;;10.48;7.78;;;19.30;82.70;;;;;;5039519;28;20126;-66
2022/05/25 10:53:29;;;;;;;9.27;8.32;;;19.30;91.20;;;;;;5068459;28;20045;-66
2022/05/25 10:56:25;;;;;;;13.95;8.50;;;19.10;86.80;;;;;;5067264;28;20044;-65
2022/05/25 10:59:09;;;;;;;17.25;9.73;;;19.10;88.40;;;;;;5061879;28;20040;-66
2022/05/25 11:02:00;;;;;;;11.05;9.48;;;19.10;92.50;;;;;;5061267;28;20190;-65
2022/05/25 11:04:49;;;;;;;10.35;9.27;;;19.30;92.60;;;;;;5049560;28;20413;-66
2022/05/25 11:07:33;;;;;;;14.55;10.00;;;19.50;88.90;;;;;;5047444;28;20556;-66
2022/05/25 11:10:17;;;;;;;18.98;10.90;;;19.50;88.50;;;;;;5049560;28;20097;-66
2022/05/25 11:12:56;;;;;;;13.55;11.02;;;19.60;90.00;;;;;;5050585;28;20041;-65
2022/05/25 11:15:28;;;;;;;15.60;12.65;;;19.80;91.90;;;;;;5047731;28;20112;-66
2022/05/25 11:18:15;;;;;;;10.75;9.75;;;19.80;91.60;;;;;;5067404;28;20047;-65
2022/05/25 11:21:06;;;;;;;15.45;8.48;;;19.70;90.30;;;;;;5068087;28;20041;-65
2022/05/25 11:23:57;;;;;;;13.38;10.23;;;19.60;88.80;;;;;;5053362;28;20053;-66
2022/05/25 11:26:31;;;;;;;12.70;11.38;;;19.70;91.70;;;;;;5047832;28;20059;-66
2022/05/25 11:29:11;;;;;;;16.00;9.45;;;19.70;88.90;;;;;;5047362;28;20130;-66
2022/05/25 11:31:53;;;;;;;9.45;8.70;;;19.80;87.50;;;;;;5057652;28;20670;-66
2022/05/25 11:34:47;;;;;;;7.28;6.57;;;19.80;83.00;;;;;;5065881;28;20137;-65
2022/05/25 11:37:28;;;;;;;8.80;6.50;;;19.80;79.70;;;;;;5053971;28;20041;-66
2022/05/25 11:40:09;;;;;;;6.53;5.50;;;19.90;75.70;;;;;;5058034;28;20048;-66
2022/05/25 11:43:04;;;;;;;15.65;7.05;;;20.00;74.40;;;;;;5047795;28;20037;-65
2022/05/25 11:45:39;;;;;;;8.18;7.47;;;20.10;69.40;;;;;;5031495;28;20073;-66
2022/05/25 11:48:33;;;;;;;9.30;7.28;;;20.10;73.40;;;;;;5047063;28;20048;-66
2022/05/25 11:51:27;;;;;;;6.68;6.07;;;20.20;68.60;;;;;;5048261;28;20176;-66
2022/05/25 11:54:16;;;;;;;7.78;6.63;;;20.20;67.00;;;;;;5047410;28;20053;-66
2022/05/25 11:57:03;;;;;;;8.35;7.65;;;19.90;66.40;;;;;;5051954;28;20064;-66
2022/05/25 11:59:45;;;;;;;9.43;8.55;;;19.70;69.20;;;;;;5061368;28;20462;-66
2022/05/25 12:02:35;;;;;;;8.32;7.40;;;19.70;71.00;;;;;;5061810;28;20045;-66
2022/05/25 12:05:19;;;;;;;9.20;7.13;;;19.60;72.40;;;;;;5061246;28;20074;-66
2022/05/25 12:07:46;;;;;;;8.18;7.47;;;19.40;70.30;;;;;;5053035;28;20044;-66
2022/05/25 12:10:25;;;;;;;9.55;8.70;;;19.30;73.20;;;;;;5066258;28;20056;-65
2022/05/25 12:13:15;;;;;;;14.38;12.90;;;19.20;72.70;;;;;;5054446;28;20550;-66
2022/05/25 12:16:06;;;;;;;12.63;11.50;;;18.90;83.10;;;;;;5054759;28;20040;-66
2022/05/25 12:18:34;;;;;;;15.00;13.45;;;18.80;88.80;;;;;;5063322;28;20486;-66
2022/05/25 12:21:13;;;;;;;16.42;12.80;;;18.70;94.20;;;;;;5051130;28;20041;-67
2022/05/25 12:23:48;;;;;;;19.63;14.68;;;18.20;99.90;;;;;;5053417;28;20048;-66
2022/05/25 12:26:37;;;;;;;27.27;13.77;;;17.60;99.90;;;;;;5057700;28;20045;-66
2022/05/25 12:29:22;;;;;;;20.23;15.63;;;17.30;99.90;;;;;;5070374;28;20048;-66
2022/05/25 12:31:57;;;;;;;19.80;16.13;;;16.90;99.90;;;;;;5071366;28;20056;-66
2022/05/25 12:34:46;;;;;;;18.80;16.60;;;16.80;99.90;;;;;;5070763;28;20123;-66
2022/05/25 12:37:17;;;;;;;21.05;15.68;;;16.80;99.90;;;;;;5064674;28;20063;-66
2022/05/25 12:39:42;;;;;;;18.35;16.30;;;17.00;99.90;;;;;;5050775;28;20067;-65
2022/05/25 12:42:23;;;;;;;24.75;18.60;;;17.20;99.90;;;;;;5051003;28;20501;-65
2022/05/25 12:51:06;;;;;;;24.30;18.08;;;17.70;99.90;;;;;;5056920;28;20073;-66
2022/05/25 12:53:34;;;;;;;19.98;16.00;;;17.80;99.90;;;;;;5063921;28;20044;-66
2022/05/25 12:56:18;;;;;;;16.48;14.88;;;17.90;99.90;;;;;;5070898;28;20041;-67
2022/05/25 12:58:46;;;;;;;20.10;16.42;;;17.90;99.90;;;;;;5060162;28;20094;-66
2022/05/25 13:01:27;;;;;;;19.70;14.40;;;18.10;99.90;;;;;;5063536;28;20051;-66
2022/05/25 13:03:55;;;;;;;16.60;15.00;;;18.00;99.90;;;;;;5050269;28;20409;-65
2022/05/25 13:06:34;;;;;;;12.75;10.50;;;18.00;99.90;;;;;;5052570;28;20567;-67
2022/05/25 13:09:08;;;;;;;20.92;11.40;;;17.80;99.90;;;;;;5059032;28;20152;-66
2022/05/25 13:11:49;;;;;;;18.45;10.23;;;17.80;99.90;;;;;;5059660;28;20052;-65
2022/05/25 13:14:20;;;;;;;14.23;10.15;;;17.70;99.90;;;;;;5058991;28;20154;-65
2022/05/25 13:16:45;;;;;;;13.82;10.35;;;17.60;99.90;;;;;;5066734;28;20146;-65
2022/05/25 13:19:32;;;;;;;11.63;9.52;;;17.50;99.90;;;;;;5049320;28;20076;-66
2022/05/25 13:22:02;;;;;;;7.93;7.13;;;17.60;99.90;;;;;;5059628;28;20817;-65
2022/05/25 13:25:06;;;;;;;9.60;6.85;;;17.60;99.90;;;;;;5070082;28;20091;-66
2022/05/25 13:27:56;;;;;;;10.82;6.35;;;17.80;99.90;;;;;;5043011;28;20049;-65
2022/05/25 13:30:39;;;;;;;8.85;5.32;;;18.00;99.90;;;;;;5048904;28;20052;-65
2022/05/25 13:33:15;;;;;;;6.80;5.32;;;18.10;99.90;;;;;;5049969;28;20401;-66
2022/05/25 13:35:51;;;;;;;7.10;5.40;;;18.10;99.90;;;;;;5053968;28;20126;-66
2022/05/25 13:38:45;;;;;;;15.50;5.30;;;18.10;99.90;;;;;;5053606;28;20071;-66